Bicknell, Utah
Current Conditions -  °F | °C
As of 10:15 AM on Thursday 30 Oct 2014 (Local Time) from KHVE Reporting Station
Clear Clear  
Wind Chill: 45°   Ceiling: Unl
Heat Index: 45°   Visibility: 10mi
Dew Point: 16°   Wind: 0mph
Humidity: 31%   Direction: NA
Pressure: 30.37"   Gusts: NA
Location:  38.34°N, 111.54°W
Report Text: KHVE 301615Z AUTO 00000KT 10SM CLR 07/M09 A3037 RMK AO2
Loading
Personal Weather Stations






























Interactive Weather Map
Tropical Storm Tracking
New forecast layout! Learn more

10-Day Weather Forecast

Advertisements
Track Severe Weather on mobile